Malaga, Washington
Current Conditions -  °F | °C
As of 4:55 AM on Thursday 23 Oct 2014 (Local Time) from KEAT Reporting Station
Few Clouds Few Clouds  
Wind Chill: 48°   Ceiling: Unl
Heat Index: 48°   Visibility: 10mi
Dew Point: 43°   Wind: 0mph
Humidity: 83%   Direction: NA
Pressure: 29.72"   Gusts: NA
Location:  47.35°N, 120.2°W
Report Text: KEAT 231155Z AUTO 00000KT 10SM FEW120 09/06 A2972 RMK AO2 SLP064 60000 70005 T00890061 10106 20072 50005
Loading
Personal Weather Stations






























Interactive Weather Map
Tropical Storm Tracking
New forecast layout! Learn more

10-Day Weather Forecast

Advertisements
Track Severe Weather on mobile